DLH876 ENBR-EDDF
Flight info
| Callsign | DLH876 |
|---|---|
| Flight time | 1h 54m |
| Altitude | 37000 |
| Route | TUXIL DCT ZOL DCT GREFI DCT SOGPO DCT DIXAT DIXAT1A |
| Aircraft | A320/M-SDE3FGHIRWY/LB1 |
Departure
| Time | 2026-04-17 08:51 |
|---|---|
| Airport | Bergen Airport, Flesland (ENBR) |
Arrival
| Time | 2026-04-17 10:45 |
|---|---|
| Airport | Frankfurt Main Airport (EDDF) |
| Time | Latitude | Longitude | Altitude | Speed | Heading |
|---|---|---|---|---|---|
| 2026-04-17 08:19 | 60.28814 | 5.22699 | 150 ft | 0 kts | 30° |
| 2026-04-17 08:40 | 60.28810 | 5.22694 | 149 ft | 3 kts | 30° |
| 2026-04-17 08:40 | 60.28786 | 5.22670 | 149 ft | 4 kts | 14° |
| 2026-04-17 08:40 | 60.28762 | 5.22667 | 149 ft | 4 kts | 323° |
| 2026-04-17 08:41 | 60.28756 | 5.22682 | 149 ft | 0 kts | 259° |
| 2026-04-17 08:45 | 60.28751 | 5.22632 | 149 ft | 8 kts | 259° |
| 2026-04-17 08:45 | 60.28771 | 5.22489 | 149 ft | 11 kts | 310° |
| 2026-04-17 08:46 | 60.28878 | 5.22418 | 150 ft | 19 kts | 351° |
| 2026-04-17 08:46 | 60.29000 | 5.22376 | 151 ft | 17 kts | 350° |
| 2026-04-17 08:46 | 60.29121 | 5.22333 | 152 ft | 21 kts | 350° |
| 2026-04-17 08:46 | 60.29253 | 5.22290 | 153 ft | 18 kts | 349° |
| 2026-04-17 08:47 | 60.29370 | 5.22246 | 154 ft | 16 kts | 349° |
| 2026-04-17 08:47 | 60.29498 | 5.22201 | 156 ft | 19 kts | 351° |
| 2026-04-17 08:47 | 60.29620 | 5.22163 | 157 ft | 17 kts | 352° |
| 2026-04-17 08:47 | 60.29718 | 5.22086 | 157 ft | 14 kts | 310° |
| 2026-04-17 08:48 | 60.29820 | 5.21969 | 158 ft | 21 kts | 353° |
| 2026-04-17 08:48 | 60.29973 | 5.21926 | 160 ft | 22 kts | 350° |
| 2026-04-17 08:48 | 60.30112 | 5.21880 | 161 ft | 19 kts | 351° |
| 2026-04-17 08:48 | 60.30245 | 5.21834 | 162 ft | 19 kts | 350° |
| 2026-04-17 08:49 | 60.30367 | 5.21791 | 163 ft | 17 kts | 350° |
| 2026-04-17 08:49 | 60.30445 | 5.21717 | 164 ft | 11 kts | 280° |
| 2026-04-17 08:49 | 60.30429 | 5.21570 | 163 ft | 11 kts | 249° |
| 2026-04-17 08:49 | 60.30387 | 5.21465 | 162 ft | 10 kts | 183° |
| 2026-04-17 08:50 | 60.30359 | 5.21475 | 161 ft | 0 kts | 170° |
| 2026-04-17 08:50 | 60.30211 | 5.21523 | 160 ft | 58 kts | 171° |
| 2026-04-17 08:50 | 60.29592 | 5.21732 | 156 ft | 120 kts | 170° |
| 2026-04-17 08:50 | 60.28624 | 5.22096 | 247 ft | 158 kts | 167° |
| 2026-04-17 08:51 | 60.27527 | 5.22544 | 869 ft | 161 kts | 166° |
| 2026-04-17 08:51 | 60.26437 | 5.23076 | 1652 ft | 159 kts | 164° |
| 2026-04-17 08:51 | 60.25368 | 5.23582 | 2399 ft | 156 kts | 169° |
| 2026-04-17 08:51 | 60.24299 | 5.23847 | 3118 ft | 153 kts | 174° |
| 2026-04-17 08:52 | 60.23239 | 5.24029 | 3654 ft | 162 kts | 172° |
| 2026-04-17 08:52 | 60.22042 | 5.24362 | 3913 ft | 185 kts | 171° |
| 2026-04-17 08:52 | 60.20678 | 5.24779 | 4245 ft | 211 kts | 171° |
| 2026-04-17 08:52 | 60.19150 | 5.25261 | 4756 ft | 231 kts | 171° |
| 2026-04-17 08:53 | 60.17539 | 5.25779 | 5573 ft | 238 kts | 171° |
| 2026-04-17 08:53 | 60.15886 | 5.26319 | 6437 ft | 243 kts | 171° |
| 2026-04-17 08:53 | 60.14202 | 5.26879 | 7243 ft | 248 kts | 171° |
| 2026-04-17 08:53 | 60.12479 | 5.27456 | 8065 ft | 253 kts | 171° |
| 2026-04-17 08:54 | 60.10723 | 5.28042 | 8895 ft | 258 kts | 171° |
| 2026-04-17 08:54 | 60.08952 | 5.28622 | 9727 ft | 262 kts | 172° |
| 2026-04-17 08:54 | 60.07130 | 5.29148 | 10455 ft | 270 kts | 173° |
| 2026-04-17 08:54 | 60.05179 | 5.29660 | 10725 ft | 294 kts | 173° |
| 2026-04-17 08:55 | 60.03072 | 5.30195 | 10952 ft | 317 kts | 173° |
| 2026-04-17 08:55 | 60.00834 | 5.30768 | 11420 ft | 328 kts | 173° |
| 2026-04-17 08:55 | 59.98545 | 5.31367 | 12074 ft | 334 kts | 173° |
| 2026-04-17 08:55 | 59.96220 | 5.31985 | 12802 ft | 338 kts | 173° |
| 2026-04-17 08:56 | 59.93903 | 5.32602 | 13531 ft | 341 kts | 172° |
| 2026-04-17 08:56 | 59.91534 | 5.33235 | 14226 ft | 345 kts | 172° |
| 2026-04-17 08:56 | 59.89131 | 5.33877 | 14875 ft | 348 kts | 172° |
| 2026-04-17 08:56 | 59.86716 | 5.34521 | 15521 ft | 351 kts | 173° |
| 2026-04-17 08:57 | 59.84309 | 5.35165 | 16159 ft | 354 kts | 173° |
| 2026-04-17 08:57 | 59.81844 | 5.35820 | 16795 ft | 357 kts | 173° |
| 2026-04-17 08:57 | 59.79362 | 5.36461 | 17406 ft | 360 kts | 174° |
| 2026-04-17 08:57 | 59.76857 | 5.36979 | 18019 ft | 363 kts | 175° |
| 2026-04-17 08:58 | 59.74331 | 5.37399 | 18609 ft | 365 kts | 176° |
| 2026-04-17 08:58 | 59.71780 | 5.37775 | 19110 ft | 368 kts | 176° |
| 2026-04-17 08:58 | 59.69239 | 5.38139 | 19597 ft | 371 kts | 176° |
| 2026-04-17 08:58 | 59.66648 | 5.38523 | 20085 ft | 375 kts | 176° |
| 2026-04-17 08:59 | 59.64024 | 5.38942 | 20566 ft | 378 kts | 175° |
| 2026-04-17 08:59 | 59.61394 | 5.39498 | 21044 ft | 382 kts | 174° |
| 2026-04-17 08:59 | 59.58750 | 5.40165 | 21504 ft | 385 kts | 173° |
| 2026-04-17 08:59 | 59.56084 | 5.40893 | 21966 ft | 388 kts | 173° |
| 2026-04-17 09:00 | 59.53394 | 5.41637 | 22433 ft | 391 kts | 173° |
| 2026-04-17 09:00 | 59.50685 | 5.42369 | 22885 ft | 394 kts | 173° |
| 2026-04-17 09:00 | 59.47946 | 5.43086 | 23318 ft | 397 kts | 174° |
| 2026-04-17 09:00 | 59.45231 | 5.43777 | 23764 ft | 400 kts | 174° |
| 2026-04-17 09:01 | 59.42454 | 5.44471 | 24140 ft | 403 kts | 174° |
| 2026-04-17 09:01 | 59.39659 | 5.45178 | 24512 ft | 405 kts | 173° |
| 2026-04-17 09:01 | 59.36862 | 5.46038 | 24870 ft | 408 kts | 172° |
| 2026-04-17 09:01 | 59.34055 | 5.47049 | 25245 ft | 410 kts | 171° |
| 2026-04-17 09:02 | 59.31246 | 5.48139 | 25607 ft | 412 kts | 170° |
| 2026-04-17 09:02 | 59.28459 | 5.49235 | 25960 ft | 414 kts | 171° |
| 2026-04-17 09:02 | 59.25613 | 5.50339 | 26317 ft | 417 kts | 171° |
| 2026-04-17 09:02 | 59.22755 | 5.51417 | 26669 ft | 419 kts | 171° |
| 2026-04-17 09:03 | 59.19880 | 5.52470 | 27006 ft | 421 kts | 172° |
| 2026-04-17 09:03 | 59.16991 | 5.53505 | 27378 ft | 422 kts | 172° |
| 2026-04-17 09:03 | 59.14138 | 5.54516 | 27711 ft | 423 kts | 172° |
| 2026-04-17 09:03 | 59.11232 | 5.55547 | 28047 ft | 425 kts | 172° |
| 2026-04-17 09:04 | 59.08316 | 5.56588 | 28366 ft | 426 kts | 172° |
| 2026-04-17 09:04 | 59.05391 | 5.57635 | 28670 ft | 428 kts | 172° |
| 2026-04-17 09:04 | 59.02449 | 5.58690 | 29000 ft | 430 kts | 172° |
| 2026-04-17 09:04 | 58.99504 | 5.59745 | 29292 ft | 431 kts | 172° |
| 2026-04-17 09:05 | 58.96569 | 5.60794 | 29591 ft | 433 kts | 172° |
| 2026-04-17 09:05 | 58.93602 | 5.61848 | 29970 ft | 432 kts | 172° |
| 2026-04-17 09:05 | 58.90646 | 5.62897 | 30395 ft | 431 kts | 172° |
| 2026-04-17 09:05 | 58.87695 | 5.63872 | 30772 ft | 428 kts | 175° |
| 2026-04-17 09:06 | 58.84733 | 5.64214 | 31116 ft | 426 kts | 180° |
| 2026-04-17 09:06 | 58.81761 | 5.64401 | 31448 ft | 425 kts | 180° |
| 2026-04-17 09:06 | 58.78804 | 5.64580 | 31782 ft | 425 kts | 180° |
| 2026-04-17 09:06 | 58.75853 | 5.64756 | 32108 ft | 425 kts | 180° |
| 2026-04-17 09:07 | 58.72928 | 5.64927 | 32436 ft | 424 kts | 180° |
| 2026-04-17 09:07 | 58.69978 | 5.65100 | 32765 ft | 424 kts | 180° |
| 2026-04-17 09:07 | 58.67030 | 5.65278 | 33098 ft | 424 kts | 180° |
| 2026-04-17 09:07 | 58.64081 | 5.65459 | 33420 ft | 423 kts | 180° |
| 2026-04-17 09:08 | 58.61134 | 5.65641 | 33749 ft | 423 kts | 180° |
| 2026-04-17 09:08 | 58.58184 | 5.65825 | 34084 ft | 423 kts | 180° |
| 2026-04-17 09:08 | 58.55234 | 5.66014 | 34385 ft | 422 kts | 180° |
| 2026-04-17 09:08 | 58.52329 | 5.66202 | 34634 ft | 423 kts | 180° |
| 2026-04-17 09:09 | 58.49385 | 5.66388 | 34869 ft | 423 kts | 180° |
| 2026-04-17 09:09 | 58.46428 | 5.66566 | 35096 ft | 424 kts | 180° |
| 2026-04-17 09:09 | 58.43472 | 5.66739 | 35319 ft | 425 kts | 180° |
| 2026-04-17 09:09 | 58.40506 | 5.66912 | 35536 ft | 425 kts | 180° |
| 2026-04-17 09:10 | 58.34613 | 5.67266 | 35943 ft | 427 kts | 180° |
| 2026-04-17 09:10 | 58.31643 | 5.67452 | 36155 ft | 427 kts | 181° |
| 2026-04-17 09:10 | 58.28665 | 5.67638 | 36357 ft | 428 kts | 181° |
| 2026-04-17 09:11 | 58.25685 | 5.67826 | 36545 ft | 428 kts | 181° |
| 2026-04-17 09:11 | 58.22699 | 5.68009 | 36742 ft | 429 kts | 181° |
| 2026-04-17 09:11 | 58.20715 | 5.68129 | 36874 ft | 429 kts | 181° |
| 2026-04-17 09:11 | 58.16747 | 5.68365 | 37123 ft | 430 kts | 181° |
| 2026-04-17 09:12 | 58.13746 | 5.68541 | 37233 ft | 432 kts | 181° |
| 2026-04-17 09:12 | 58.10728 | 5.68721 | 37247 ft | 433 kts | 181° |
| 2026-04-17 09:12 | 58.05711 | 5.69024 | 37239 ft | 434 kts | 181° |
| 2026-04-17 09:13 | 57.99667 | 5.69387 | 37241 ft | 434 kts | 181° |
| 2026-04-17 09:13 | 57.93630 | 5.69749 | 37246 ft | 434 kts | 181° |
| 2026-04-17 09:14 | 57.87580 | 5.70102 | 37246 ft | 434 kts | 181° |
| 2026-04-17 09:14 | 57.81522 | 5.70463 | 37250 ft | 435 kts | 181° |
| 2026-04-17 09:15 | 57.75507 | 5.70813 | 37235 ft | 435 kts | 181° |
| 2026-04-17 09:15 | 57.69430 | 5.71172 | 37244 ft | 435 kts | 181° |
| 2026-04-17 09:16 | 57.63365 | 5.71529 | 37247 ft | 436 kts | 181° |
| 2026-04-17 09:16 | 57.57332 | 5.71880 | 37250 ft | 436 kts | 181° |
| 2026-04-17 09:17 | 57.51257 | 5.72242 | 37230 ft | 436 kts | 182° |
| 2026-04-17 09:17 | 57.45190 | 5.72597 | 37233 ft | 436 kts | 182° |
| 2026-04-17 09:18 | 57.39112 | 5.72940 | 37240 ft | 436 kts | 182° |
| 2026-04-17 09:18 | 57.33041 | 5.73282 | 37236 ft | 437 kts | 182° |
| 2026-04-17 09:19 | 57.26969 | 5.73631 | 37242 ft | 437 kts | 182° |
| 2026-04-17 09:19 | 57.20920 | 5.73984 | 37225 ft | 437 kts | 182° |
| 2026-04-17 09:20 | 57.14826 | 5.74331 | 37224 ft | 438 kts | 182° |
| 2026-04-17 09:20 | 57.08714 | 5.74676 | 37226 ft | 438 kts | 182° |
| 2026-04-17 09:21 | 57.02654 | 5.75014 | 37228 ft | 438 kts | 182° |
| 2026-04-17 09:21 | 56.96549 | 5.75363 | 37211 ft | 439 kts | 183° |
| 2026-04-17 09:22 | 56.90441 | 5.75700 | 37211 ft | 439 kts | 183° |
| 2026-04-17 09:22 | 56.84337 | 5.76048 | 37218 ft | 439 kts | 183° |
| 2026-04-17 09:23 | 56.78216 | 5.76393 | 37221 ft | 439 kts | 183° |
| 2026-04-17 09:23 | 56.72112 | 5.76732 | 37219 ft | 440 kts | 183° |
| 2026-04-17 09:24 | 56.65994 | 5.77068 | 37208 ft | 440 kts | 183° |
| 2026-04-17 09:24 | 56.59866 | 5.77409 | 37216 ft | 440 kts | 183° |
| 2026-04-17 09:25 | 56.53767 | 5.77751 | 37217 ft | 440 kts | 183° |
| 2026-04-17 09:25 | 56.47639 | 5.78079 | 37211 ft | 440 kts | 183° |
| 2026-04-17 09:26 | 56.41512 | 5.78418 | 37191 ft | 441 kts | 183° |
| 2026-04-17 09:26 | 56.35365 | 5.78755 | 37200 ft | 441 kts | 184° |
| 2026-04-17 09:27 | 56.29240 | 5.79079 | 37212 ft | 442 kts | 184° |
| 2026-04-17 09:27 | 56.23096 | 5.79413 | 37219 ft | 442 kts | 183° |
| 2026-04-17 09:28 | 56.16925 | 5.79756 | 37213 ft | 442 kts | 183° |
| 2026-04-17 09:28 | 56.10775 | 5.80088 | 37218 ft | 442 kts | 184° |
| 2026-04-17 09:29 | 56.04612 | 5.80414 | 37215 ft | 442 kts | 184° |
| 2026-04-17 09:29 | 55.98488 | 5.80743 | 37218 ft | 442 kts | 184° |
| 2026-04-17 09:30 | 55.92330 | 5.81062 | 37220 ft | 442 kts | 184° |
| 2026-04-17 09:30 | 55.86167 | 5.81396 | 37223 ft | 442 kts | 184° |
| 2026-04-17 09:31 | 55.80008 | 5.81724 | 37222 ft | 442 kts | 184° |
| 2026-04-17 09:31 | 55.73888 | 5.82054 | 37219 ft | 442 kts | 184° |
| 2026-04-17 09:32 | 55.67734 | 5.82380 | 37229 ft | 442 kts | 184° |
| 2026-04-17 09:32 | 55.61568 | 5.82700 | 37201 ft | 442 kts | 184° |
| 2026-04-17 09:33 | 55.55400 | 5.83017 | 37215 ft | 443 kts | 184° |
| 2026-04-17 09:33 | 55.49271 | 5.83339 | 37216 ft | 443 kts | 184° |
| 2026-04-17 09:34 | 55.43099 | 5.83675 | 37217 ft | 443 kts | 184° |
| 2026-04-17 09:34 | 55.36958 | 5.83999 | 37204 ft | 443 kts | 184° |
| 2026-04-17 09:35 | 55.30782 | 5.84304 | 37206 ft | 443 kts | 184° |
| 2026-04-17 09:35 | 55.24610 | 5.84620 | 37211 ft | 444 kts | 184° |
| 2026-04-17 09:36 | 55.18425 | 5.84935 | 37220 ft | 444 kts | 184° |
| 2026-04-17 09:36 | 55.12243 | 5.85253 | 37202 ft | 444 kts | 184° |
| 2026-04-17 09:37 | 55.06101 | 5.85565 | 37202 ft | 444 kts | 184° |
| 2026-04-17 09:37 | 54.99893 | 5.85888 | 37208 ft | 445 kts | 183° |
| 2026-04-17 09:38 | 54.93685 | 5.86541 | 37216 ft | 447 kts | 180° |
| 2026-04-17 09:38 | 54.87504 | 5.87527 | 37230 ft | 448 kts | 180° |
| 2026-04-17 09:39 | 54.81284 | 5.88510 | 37216 ft | 448 kts | 181° |
| 2026-04-17 09:39 | 54.75059 | 5.89387 | 37225 ft | 448 kts | 181° |
| 2026-04-17 09:40 | 54.68877 | 5.90223 | 37234 ft | 448 kts | 181° |
| 2026-04-17 09:40 | 54.62656 | 5.91067 | 37237 ft | 448 kts | 181° |
| 2026-04-17 09:41 | 54.56428 | 5.91908 | 37209 ft | 448 kts | 181° |
| 2026-04-17 09:41 | 54.50224 | 5.92737 | 37210 ft | 449 kts | 181° |
| 2026-04-17 09:42 | 54.43982 | 5.93589 | 37226 ft | 450 kts | 181° |
| 2026-04-17 09:42 | 54.37733 | 5.94451 | 37223 ft | 450 kts | 181° |
| 2026-04-17 09:43 | 54.31510 | 5.95293 | 37207 ft | 450 kts | 181° |
| 2026-04-17 09:43 | 54.25246 | 5.96131 | 37223 ft | 451 kts | 181° |
| 2026-04-17 09:44 | 54.18973 | 5.96978 | 37231 ft | 451 kts | 181° |
| 2026-04-17 09:44 | 54.12737 | 5.97808 | 37237 ft | 452 kts | 181° |
| 2026-04-17 09:45 | 54.06462 | 5.98637 | 37219 ft | 452 kts | 181° |
| 2026-04-17 09:45 | 54.00180 | 5.99474 | 37226 ft | 452 kts | 181° |
| 2026-04-17 09:46 | 53.93893 | 6.00317 | 37227 ft | 453 kts | 181° |
| 2026-04-17 09:46 | 53.87631 | 6.01136 | 37231 ft | 453 kts | 181° |
| 2026-04-17 09:47 | 53.81335 | 6.01952 | 37214 ft | 453 kts | 181° |
| 2026-04-17 09:47 | 53.75028 | 6.02791 | 37222 ft | 454 kts | 181° |
| 2026-04-17 09:48 | 53.68755 | 6.03620 | 37227 ft | 454 kts | 181° |
| 2026-04-17 09:48 | 53.62454 | 6.04447 | 37230 ft | 454 kts | 181° |
| 2026-04-17 09:49 | 53.56152 | 6.05265 | 37211 ft | 454 kts | 181° |
| 2026-04-17 09:49 | 53.49847 | 6.06078 | 37217 ft | 454 kts | 181° |
| 2026-04-17 09:50 | 53.43534 | 6.06898 | 37223 ft | 454 kts | 181° |
| 2026-04-17 09:50 | 53.37270 | 6.07708 | 37228 ft | 454 kts | 181° |
| 2026-04-17 09:51 | 53.30954 | 6.08531 | 37229 ft | 454 kts | 181° |
| 2026-04-17 09:51 | 53.24639 | 6.09337 | 37231 ft | 454 kts | 181° |
| 2026-04-17 09:52 | 53.18364 | 6.10131 | 37234 ft | 455 kts | 181° |
| 2026-04-17 09:52 | 53.12030 | 6.10943 | 37234 ft | 455 kts | 181° |
| 2026-04-17 09:53 | 53.06775 | 6.11620 | 37209 ft | 455 kts | 181° |
| 2026-04-17 09:53 | 52.99410 | 6.12557 | 37214 ft | 456 kts | 181° |
| 2026-04-17 09:54 | 52.94131 | 6.13225 | 37213 ft | 457 kts | 181° |
| 2026-04-17 09:54 | 52.87781 | 6.14023 | 37221 ft | 457 kts | 181° |
| 2026-04-17 09:55 | 52.81406 | 6.14819 | 37205 ft | 458 kts | 181° |
| 2026-04-17 09:55 | 52.75076 | 6.15619 | 37218 ft | 458 kts | 181° |
| 2026-04-17 09:56 | 52.68697 | 6.16421 | 37226 ft | 458 kts | 181° |
| 2026-04-17 09:56 | 52.62362 | 6.17210 | 37233 ft | 459 kts | 181° |
| 2026-04-17 09:57 | 52.55987 | 6.17998 | 37219 ft | 459 kts | 180° |
| 2026-04-17 09:57 | 52.49615 | 6.18791 | 37223 ft | 459 kts | 181° |
| 2026-04-17 09:58 | 52.43245 | 6.19572 | 37235 ft | 459 kts | 180° |
| 2026-04-17 09:58 | 52.36903 | 6.20357 | 37235 ft | 459 kts | 180° |
| 2026-04-17 09:59 | 52.30513 | 6.21148 | 37223 ft | 459 kts | 180° |
| 2026-04-17 09:59 | 52.24141 | 6.21931 | 37229 ft | 459 kts | 180° |
| 2026-04-17 10:00 | 52.17801 | 6.22707 | 37230 ft | 459 kts | 180° |
| 2026-04-17 10:00 | 52.11437 | 6.23483 | 37210 ft | 459 kts | 180° |
| 2026-04-17 10:01 | 52.05063 | 6.24253 | 37221 ft | 459 kts | 180° |
| 2026-04-17 10:01 | 51.98700 | 6.25671 | 36944 ft | 465 kts | 168° |
| 2026-04-17 10:02 | 51.95659 | 6.27529 | 36400 ft | 470 kts | 157° |
| 2026-04-17 10:02 | 51.92838 | 6.30250 | 36185 ft | 476 kts | 147° |
| 2026-04-17 10:02 | 51.87649 | 6.37040 | 36229 ft | 481 kts | 144° |
| 2026-04-17 10:03 | 51.82457 | 6.43768 | 36229 ft | 480 kts | 144° |
| 2026-04-17 10:03 | 51.77225 | 6.50506 | 36232 ft | 480 kts | 144° |
| 2026-04-17 10:04 | 51.72005 | 6.57265 | 36228 ft | 480 kts | 144° |
| 2026-04-17 10:04 | 51.69428 | 6.60606 | 35933 ft | 479 kts | 144° |
| 2026-04-17 10:04 | 51.66835 | 6.63971 | 35210 ft | 479 kts | 144° |
| 2026-04-17 10:05 | 51.64228 | 6.67342 | 34482 ft | 480 kts | 144° |
| 2026-04-17 10:05 | 51.61611 | 6.70712 | 33667 ft | 481 kts | 144° |
| 2026-04-17 10:05 | 51.58978 | 6.74087 | 32831 ft | 482 kts | 144° |
| 2026-04-17 10:05 | 51.56347 | 6.77455 | 31992 ft | 483 kts | 144° |
| 2026-04-17 10:06 | 51.53743 | 6.80787 | 31368 ft | 484 kts | 143° |
| 2026-04-17 10:06 | 51.51100 | 6.84169 | 30796 ft | 485 kts | 143° |
| 2026-04-17 10:06 | 51.48451 | 6.87559 | 30199 ft | 486 kts | 143° |
| 2026-04-17 10:06 | 51.45807 | 6.90939 | 29572 ft | 487 kts | 143° |
| 2026-04-17 10:07 | 51.43144 | 6.94333 | 29139 ft | 487 kts | 143° |
| 2026-04-17 10:07 | 51.40492 | 6.97709 | 28731 ft | 485 kts | 143° |
| 2026-04-17 10:07 | 51.37855 | 7.01059 | 28324 ft | 482 kts | 144° |
| 2026-04-17 10:07 | 51.35257 | 7.04351 | 27906 ft | 478 kts | 143° |
| 2026-04-17 10:08 | 51.32660 | 7.07639 | 27530 ft | 474 kts | 143° |
| 2026-04-17 10:08 | 51.30081 | 7.10895 | 27234 ft | 471 kts | 143° |
| 2026-04-17 10:08 | 51.27488 | 7.14067 | 27232 ft | 469 kts | 148° |
| 2026-04-17 10:08 | 51.24692 | 7.16742 | 27237 ft | 467 kts | 155° |
| 2026-04-17 10:09 | 51.21774 | 7.19039 | 27233 ft | 468 kts | 156° |
| 2026-04-17 10:09 | 51.18844 | 7.21344 | 27233 ft | 469 kts | 156° |
| 2026-04-17 10:09 | 51.15923 | 7.23645 | 27231 ft | 469 kts | 156° |
| 2026-04-17 10:09 | 51.12995 | 7.25958 | 27234 ft | 469 kts | 156° |
| 2026-04-17 10:10 | 51.10107 | 7.28249 | 27127 ft | 467 kts | 155° |
| 2026-04-17 10:10 | 51.07237 | 7.30577 | 26492 ft | 461 kts | 155° |
| 2026-04-17 10:10 | 51.04393 | 7.32931 | 25841 ft | 457 kts | 154° |
| 2026-04-17 10:11 | 50.98794 | 7.37623 | 25204 ft | 453 kts | 154° |
| 2026-04-17 10:11 | 50.95998 | 7.39953 | 25239 ft | 453 kts | 154° |
| 2026-04-17 10:11 | 50.93233 | 7.42234 | 25235 ft | 453 kts | 155° |
| 2026-04-17 10:11 | 50.90442 | 7.44519 | 24786 ft | 448 kts | 155° |
| 2026-04-17 10:12 | 50.87679 | 7.46773 | 24172 ft | 444 kts | 155° |
| 2026-04-17 10:12 | 50.84945 | 7.49004 | 23548 ft | 440 kts | 155° |
| 2026-04-17 10:12 | 50.82239 | 7.51209 | 22889 ft | 435 kts | 155° |
| 2026-04-17 10:12 | 50.79548 | 7.53395 | 22231 ft | 431 kts | 154° |
| 2026-04-17 10:13 | 50.76919 | 7.55536 | 21610 ft | 428 kts | 154° |
| 2026-04-17 10:13 | 50.74279 | 7.57689 | 21018 ft | 424 kts | 154° |
| 2026-04-17 10:13 | 50.71670 | 7.59813 | 20451 ft | 420 kts | 154° |
| 2026-04-17 10:13 | 50.69083 | 7.61918 | 19880 ft | 416 kts | 154° |
| 2026-04-17 10:14 | 50.66517 | 7.64005 | 19350 ft | 412 kts | 154° |
| 2026-04-17 10:14 | 50.63983 | 7.66060 | 18826 ft | 408 kts | 154° |
| 2026-04-17 10:14 | 50.61461 | 7.68098 | 18267 ft | 404 kts | 154° |
| 2026-04-17 10:14 | 50.58972 | 7.70100 | 17713 ft | 400 kts | 154° |
| 2026-04-17 10:15 | 50.56536 | 7.72058 | 17170 ft | 396 kts | 154° |
| 2026-04-17 10:15 | 50.54080 | 7.74034 | 16629 ft | 393 kts | 154° |
| 2026-04-17 10:15 | 50.51649 | 7.75988 | 16113 ft | 390 kts | 154° |
| 2026-04-17 10:15 | 50.49257 | 7.77906 | 15382 ft | 382 kts | 154° |
| 2026-04-17 10:16 | 50.46901 | 7.79792 | 14447 ft | 377 kts | 154° |
| 2026-04-17 10:16 | 50.44578 | 7.81654 | 13483 ft | 372 kts | 153° |
| 2026-04-17 10:16 | 50.42408 | 7.83897 | 12795 ft | 372 kts | 142° |
| 2026-04-17 10:16 | 50.40430 | 7.86397 | 12300 ft | 368 kts | 142° |
| 2026-04-17 10:17 | 50.38430 | 7.88885 | 11770 ft | 365 kts | 142° |
| 2026-04-17 10:17 | 50.36453 | 7.91318 | 11477 ft | 354 kts | 142° |
| 2026-04-17 10:17 | 50.34547 | 7.93663 | 11346 ft | 340 kts | 142° |
| 2026-04-17 10:17 | 50.32715 | 7.95915 | 11224 ft | 328 kts | 142° |
| 2026-04-17 10:18 | 50.30951 | 7.98084 | 11104 ft | 316 kts | 142° |
| 2026-04-17 10:18 | 50.29274 | 8.00153 | 10960 ft | 303 kts | 142° |
| 2026-04-17 10:18 | 50.27639 | 8.02170 | 10600 ft | 297 kts | 142° |
| 2026-04-17 10:18 | 50.26104 | 8.04314 | 10311 ft | 294 kts | 131° |
| 2026-04-17 10:19 | 50.24853 | 8.06834 | 10224 ft | 293 kts | 128° |
| 2026-04-17 10:19 | 50.23612 | 8.09377 | 10236 ft | 295 kts | 128° |
| 2026-04-17 10:19 | 50.22357 | 8.11920 | 10238 ft | 295 kts | 128° |
| 2026-04-17 10:19 | 50.21101 | 8.14456 | 10239 ft | 295 kts | 128° |
| 2026-04-17 10:20 | 50.19841 | 8.16994 | 10242 ft | 295 kts | 128° |
| 2026-04-17 10:20 | 50.18586 | 8.19528 | 10244 ft | 295 kts | 128° |
| 2026-04-17 10:20 | 50.17330 | 8.22066 | 10244 ft | 295 kts | 128° |
| 2026-04-17 10:20 | 50.16094 | 8.24565 | 10245 ft | 294 kts | 128° |
| 2026-04-17 10:21 | 50.14838 | 8.27100 | 10244 ft | 295 kts | 128° |
| 2026-04-17 10:21 | 50.13581 | 8.29629 | 10247 ft | 295 kts | 128° |
| 2026-04-17 10:21 | 50.12320 | 8.32158 | 10247 ft | 295 kts | 128° |
| 2026-04-17 10:21 | 50.11179 | 8.34819 | 10248 ft | 295 kts | 115° |
| 2026-04-17 10:22 | 50.10590 | 8.37831 | 10245 ft | 294 kts | 97° |
| 2026-04-17 10:22 | 50.10626 | 8.41009 | 10246 ft | 294 kts | 78° |
| 2026-04-17 10:22 | 50.11239 | 8.44042 | 10247 ft | 294 kts | 68° |
| 2026-04-17 10:22 | 50.11968 | 8.47031 | 10247 ft | 294 kts | 69° |
| 2026-04-17 10:23 | 50.12680 | 8.49994 | 10211 ft | 293 kts | 69° |
| 2026-04-17 10:23 | 50.13389 | 8.52963 | 9827 ft | 292 kts | 69° |
| 2026-04-17 10:23 | 50.14098 | 8.55934 | 9419 ft | 291 kts | 69° |
| 2026-04-17 10:23 | 50.14804 | 8.58885 | 9037 ft | 289 kts | 69° |
| 2026-04-17 10:24 | 50.15492 | 8.61793 | 8678 ft | 288 kts | 70° |
| 2026-04-17 10:24 | 50.16185 | 8.64720 | 8291 ft | 287 kts | 70° |
| 2026-04-17 10:24 | 50.16876 | 8.67631 | 7901 ft | 286 kts | 70° |
| 2026-04-17 10:24 | 50.17564 | 8.70534 | 7530 ft | 284 kts | 70° |
| 2026-04-17 10:25 | 50.18245 | 8.73425 | 7156 ft | 282 kts | 70° |
| 2026-04-17 10:25 | 50.18925 | 8.76299 | 6786 ft | 281 kts | 70° |
| 2026-04-17 10:25 | 50.19593 | 8.79124 | 6406 ft | 279 kts | 71° |
| 2026-04-17 10:25 | 50.20265 | 8.81964 | 6023 ft | 278 kts | 71° |
| 2026-04-17 10:26 | 50.20933 | 8.84790 | 5689 ft | 275 kts | 70° |
| 2026-04-17 10:26 | 50.21594 | 8.87589 | 5432 ft | 274 kts | 71° |
| 2026-04-17 10:26 | 50.22249 | 8.90377 | 5180 ft | 272 kts | 71° |
| 2026-04-17 10:26 | 50.22901 | 8.93167 | 4920 ft | 272 kts | 71° |
| 2026-04-17 10:27 | 50.23543 | 8.95914 | 4658 ft | 271 kts | 71° |
| 2026-04-17 10:27 | 50.24153 | 8.98699 | 4385 ft | 269 kts | 78° |
| 2026-04-17 10:27 | 50.24206 | 9.01596 | 4151 ft | 266 kts | 102° |
| 2026-04-17 10:27 | 50.23507 | 9.04241 | 3993 ft | 263 kts | 127° |
| 2026-04-17 10:28 | 50.22226 | 9.06172 | 3984 ft | 248 kts | 150° |
| 2026-04-17 10:28 | 50.20684 | 9.07124 | 3988 ft | 231 kts | 172° |
| 2026-04-17 10:28 | 50.19119 | 9.07131 | 3990 ft | 228 kts | 192° |
| 2026-04-17 10:28 | 50.17642 | 9.06274 | 3986 ft | 226 kts | 213° |
| 2026-04-17 10:29 | 50.16632 | 9.04446 | 3993 ft | 227 kts | 245° |
| 2026-04-17 10:29 | 50.16278 | 9.02052 | 3993 ft | 229 kts | 273° |
| 2026-04-17 10:29 | 50.16803 | 8.99720 | 3995 ft | 232 kts | 306° |
| 2026-04-17 10:29 | 50.18029 | 8.98085 | 3997 ft | 234 kts | 328° |
| 2026-04-17 10:30 | 50.19464 | 8.96854 | 3993 ft | 236 kts | 331° |
| 2026-04-17 10:30 | 50.20933 | 8.95671 | 3992 ft | 237 kts | 332° |
| 2026-04-17 10:30 | 50.22386 | 8.94517 | 3990 ft | 237 kts | 332° |
| 2026-04-17 10:30 | 50.23858 | 8.93352 | 3990 ft | 236 kts | 332° |
| 2026-04-17 10:31 | 50.25403 | 8.92526 | 3992 ft | 237 kts | 356° |
| 2026-04-17 10:31 | 50.27008 | 8.93021 | 3992 ft | 238 kts | 27° |
| 2026-04-17 10:31 | 50.28422 | 8.94388 | 3998 ft | 239 kts | 34° |
| 2026-04-17 10:31 | 50.29786 | 8.95892 | 3991 ft | 239 kts | 36° |
| 2026-04-17 10:32 | 50.31125 | 8.97394 | 3991 ft | 239 kts | 36° |
| 2026-04-17 10:32 | 50.32483 | 8.98918 | 3993 ft | 239 kts | 36° |
| 2026-04-17 10:32 | 50.33835 | 9.00442 | 3991 ft | 239 kts | 38° |
| 2026-04-17 10:32 | 50.34899 | 9.02367 | 3994 ft | 238 kts | 61° |
| 2026-04-17 10:33 | 50.35654 | 9.04677 | 3991 ft | 238 kts | 65° |
| 2026-04-17 10:33 | 50.36348 | 9.07036 | 3992 ft | 238 kts | 69° |
| 2026-04-17 10:33 | 50.36846 | 9.09500 | 3991 ft | 236 kts | 81° |
| 2026-04-17 10:33 | 50.36909 | 9.12031 | 3992 ft | 234 kts | 101° |
| 2026-04-17 10:34 | 50.36336 | 9.14415 | 3991 ft | 232 kts | 123° |
| 2026-04-17 10:34 | 50.35571 | 9.16619 | 3991 ft | 233 kts | 120° |
| 2026-04-17 10:34 | 50.34471 | 9.18403 | 3986 ft | 228 kts | 155° |
| 2026-04-17 10:34 | 50.33478 | 9.18907 | 3992 ft | 227 kts | 173° |
| 2026-04-17 10:35 | 50.31953 | 9.18752 | 3986 ft | 213 kts | 198° |
| 2026-04-17 10:35 | 50.30691 | 9.17713 | 3987 ft | 200 kts | 220° |
| 2026-04-17 10:35 | 50.29676 | 9.16323 | 3990 ft | 188 kts | 221° |
| 2026-04-17 10:35 | 50.28680 | 9.14973 | 4014 ft | 194 kts | 221° |
| 2026-04-17 10:36 | 50.27652 | 9.13585 | 4001 ft | 199 kts | 221° |
| 2026-04-17 10:36 | 50.26598 | 9.12161 | 3995 ft | 200 kts | 221° |
| 2026-04-17 10:36 | 50.25544 | 9.10740 | 3994 ft | 200 kts | 220° |
| 2026-04-17 10:36 | 50.24486 | 9.09318 | 3992 ft | 200 kts | 220° |
| 2026-04-17 10:37 | 50.23423 | 9.07888 | 3983 ft | 206 kts | 220° |
| 2026-04-17 10:37 | 50.22300 | 9.06379 | 3990 ft | 215 kts | 220° |
| 2026-04-17 10:37 | 50.21160 | 9.04851 | 3991 ft | 216 kts | 220° |
| 2026-04-17 10:37 | 50.20015 | 9.03319 | 3978 ft | 217 kts | 220° |
| 2026-04-17 10:38 | 50.18890 | 9.01810 | 3992 ft | 216 kts | 220° |
| 2026-04-17 10:38 | 50.17746 | 9.00274 | 4000 ft | 217 kts | 220° |
| 2026-04-17 10:38 | 50.16602 | 8.98741 | 3997 ft | 217 kts | 220° |
| 2026-04-17 10:38 | 50.15466 | 8.97192 | 3997 ft | 217 kts | 225° |
| 2026-04-17 10:39 | 50.14589 | 8.95286 | 3999 ft | 217 kts | 242° |
| 2026-04-17 10:39 | 50.13988 | 8.93117 | 4004 ft | 218 kts | 248° |
| 2026-04-17 10:39 | 50.13471 | 8.90936 | 4000 ft | 210 kts | 249° |
| 2026-04-17 10:39 | 50.12973 | 8.88808 | 4004 ft | 208 kts | 249° |
| 2026-04-17 10:40 | 50.12481 | 8.86711 | 3998 ft | 207 kts | 249° |
| 2026-04-17 10:40 | 50.11984 | 8.84596 | 4004 ft | 208 kts | 249° |
| 2026-04-17 10:40 | 50.11486 | 8.82483 | 3999 ft | 206 kts | 249° |
| 2026-04-17 10:40 | 50.11008 | 8.80452 | 4021 ft | 192 kts | 249° |
| 2026-04-17 10:41 | 50.10553 | 8.78526 | 3902 ft | 188 kts | 249° |
| 2026-04-17 10:41 | 50.10105 | 8.76627 | 3672 ft | 186 kts | 249° |
| 2026-04-17 10:41 | 50.09659 | 8.74743 | 3433 ft | 185 kts | 249° |
| 2026-04-17 10:41 | 50.09220 | 8.72887 | 3171 ft | 184 kts | 249° |
| 2026-04-17 10:42 | 50.08776 | 8.71012 | 2910 ft | 184 kts | 248° |
| 2026-04-17 10:42 | 50.08343 | 8.69183 | 2656 ft | 174 kts | 249° |
| 2026-04-17 10:42 | 50.07945 | 8.67502 | 2422 ft | 157 kts | 249° |
| 2026-04-17 10:42 | 50.07583 | 8.65978 | 2194 ft | 144 kts | 249° |
| 2026-04-17 10:43 | 50.07240 | 8.64537 | 1996 ft | 139 kts | 249° |
| 2026-04-17 10:43 | 50.06906 | 8.63131 | 1796 ft | 137 kts | 249° |
| 2026-04-17 10:43 | 50.06578 | 8.61756 | 1602 ft | 137 kts | 249° |
| 2026-04-17 10:43 | 50.06246 | 8.60374 | 1418 ft | 136 kts | 249° |
| 2026-04-17 10:44 | 50.05915 | 8.58996 | 1220 ft | 136 kts | 250° |
| 2026-04-17 10:44 | 50.05606 | 8.57608 | 1007 ft | 135 kts | 248° |
| 2026-04-17 10:44 | 50.05279 | 8.56236 | 807 ft | 135 kts | 249° |
| 2026-04-17 10:44 | 50.04946 | 8.54878 | 614 ft | 132 kts | 249° |
| 2026-04-17 10:45 | 50.04626 | 8.53539 | 427 ft | 134 kts | 247° |
| 2026-04-17 10:45 | 50.04306 | 8.52245 | 346 ft | 114 kts | 251° |
| 2026-04-17 10:45 | 50.04098 | 8.51348 | 331 ft | 55 kts | 250° |
| 2026-04-17 10:45 | 50.04005 | 8.51065 | 326 ft | 17 kts | 229° |
| 2026-04-17 10:46 | 50.03922 | 8.50933 | 325 ft | 16 kts | 219° |
| 2026-04-17 10:46 | 50.03868 | 8.50866 | 323 ft | 6 kts | 218° |
| 2026-04-17 10:46 | 50.03834 | 8.50832 | 326 ft | 7 kts | 196° |
| 2026-04-17 10:46 | 50.03801 | 8.50849 | 328 ft | 3 kts | 136° |
| 2026-04-17 10:47 | 50.03783 | 8.50902 | 333 ft | 12 kts | 109° |
| 2026-04-17 10:47 | 50.03802 | 8.51013 | 333 ft | 10 kts | 66° |
| 2026-04-17 10:47 | 50.03832 | 8.51135 | 334 ft | 13 kts | 70° |
| 2026-04-17 10:47 | 50.03863 | 8.51265 | 335 ft | 12 kts | 70° |
| 2026-04-17 10:48 | 50.03891 | 8.51381 | 332 ft | 11 kts | 69° |
| 2026-04-17 10:48 | 50.03915 | 8.51486 | 333 ft | 11 kts | 70° |
| 2026-04-17 10:48 | 50.03955 | 8.51651 | 332 ft | 20 kts | 69° |
| 2026-04-17 10:48 | 50.04005 | 8.51857 | 336 ft | 21 kts | 69° |
| 2026-04-17 10:49 | 50.04057 | 8.52076 | 339 ft | 22 kts | 70° |
| 2026-04-17 10:49 | 50.04109 | 8.52302 | 347 ft | 22 kts | 70° |
| 2026-04-17 10:49 | 50.04166 | 8.52535 | 350 ft | 25 kts | 69° |
| 2026-04-17 10:49 | 50.04225 | 8.52785 | 357 ft | 25 kts | 70° |
| 2026-04-17 10:50 | 50.04288 | 8.53043 | 361 ft | 27 kts | 69° |
| 2026-04-17 10:50 | 50.04355 | 8.53322 | 367 ft | 26 kts | 70° |
| 2026-04-17 10:50 | 50.04399 | 8.53577 | 375 ft | 24 kts | 84° |
| 2026-04-17 10:50 | 50.04417 | 8.53847 | 375 ft | 26 kts | 84° |
| 2026-04-17 10:51 | 50.04436 | 8.54138 | 375 ft | 28 kts | 84° |
| 2026-04-17 10:51 | 50.04453 | 8.54412 | 371 ft | 23 kts | 87° |
| 2026-04-17 10:51 | 50.04406 | 8.54653 | 367 ft | 23 kts | 125° |
| 2026-04-17 10:51 | 50.04298 | 8.54780 | 357 ft | 19 kts | 156° |
| 2026-04-17 10:52 | 50.04165 | 8.54855 | 356 ft | 13 kts | 159° |
| 2026-04-17 10:52 | 50.04097 | 8.54895 | 350 ft | 11 kts | 159° |
| 2026-04-17 10:52 | 50.04029 | 8.54935 | 356 ft | 10 kts | 159° |
| 2026-04-17 10:52 | 50.03959 | 8.54976 | 356 ft | 12 kts | 160° |
| 2026-04-17 10:53 | 50.03870 | 8.55028 | 358 ft | 14 kts | 155° |
| 2026-04-17 10:53 | 50.03860 | 8.55165 | 352 ft | 16 kts | 67° |
| 2026-04-17 10:53 | 50.03917 | 8.55399 | 352 ft | 26 kts | 69° |
| 2026-04-17 10:53 | 50.03982 | 8.55677 | 356 ft | 28 kts | 70° |
| 2026-04-17 10:54 | 50.04050 | 8.55956 | 356 ft | 23 kts | 68° |
| 2026-04-17 10:54 | 50.04104 | 8.56171 | 355 ft | 15 kts | 68° |
| 2026-04-17 10:54 | 50.04157 | 8.56279 | 359 ft | 12 kts | 9° |
| 2026-04-17 10:54 | 50.04237 | 8.56239 | 357 ft | 13 kts | 339° |
| 2026-04-17 10:55 | 50.04297 | 8.56177 | 357 ft | 10 kts | 269° |
| 2026-04-17 10:55 | 50.04328 | 8.56061 | 359 ft | 13 kts | 331° |
| 2026-04-17 10:55 | 50.04404 | 8.56028 | 361 ft | 10 kts | 2° |
| 2026-04-17 10:55 | 50.04449 | 8.56105 | 363 ft | 10 kts | 70° |
| 2026-04-17 10:56 | 50.04472 | 8.56205 | 362 ft | 9 kts | 70° |
| 2026-04-17 10:56 | 50.04494 | 8.56293 | 360 ft | 8 kts | 69° |
| 2026-04-17 10:56 | 50.04512 | 8.56372 | 357 ft | 6 kts | 82° |
| 2026-04-17 10:56 | 50.04483 | 8.56409 | 356 ft | 5 kts | 148° |
| 2026-04-17 10:57 | 50.04460 | 8.56426 | 359 ft | 2 kts | 154° |
| 2026-04-17 10:57 | 50.04453 | 8.56431 | 375 ft | 0 kts | 154° |